sensor_id;sensor_type;location;lat;lon;timestamp;temperature;humidity
20504;DHT22;10410;51.046;6.980;2023-10-09T00:04:59;14.60;99.90
20504;DHT22;10410;51.046;6.980;2023-10-09T00:12:02;14.60;99.90
20504;DHT22;10410;51.046;6.980;2023-10-09T00:19:10;14.60;99.90
20504;DHT22;10410;51.046;6.980;2023-10-09T00:26:15;14.70;99.90
20504;DHT22;10410;51.046;6.980;2023-10-09T00:33:22;14.70;99.90
20504;DHT22;10410;51.046;6.980;2023-10-09T00:40:30;14.60;99.90
20504;DHT22;10410;51.046;6.980;2023-10-09T00:47:32;14.60;99.90
20504;DHT22;10410;51.046;6.980;2023-10-09T00:54:41;14.60;99.90
20504;DHT22;10410;51.046;6.980;2023-10-09T01:01:42;14.50;99.90
20504;DHT22;10410;51.046;6.980;2023-10-09T01:09:06;14.40;99.90
20504;DHT22;10410;51.046;6.980;2023-10-09T01:16:10;14.30;99.90
20504;DHT22;10410;51.046;6.980;2023-10-09T01:23:15;14.20;99.90
20504;DHT22;10410;51.046;6.980;2023-10-09T01:30:16;14.20;99.90
20504;DHT22;10410;51.046;6.980;2023-10-09T01:37:18;14.20;99.90
20504;DHT22;10410;51.046;6.980;2023-10-09T01:44:20;14.30;99.90
20504;DHT22;10410;51.046;6.980;2023-10-09T01:51:21;14.30;99.90
20504;DHT22;10410;51.046;6.980;2023-10-09T01:58:22;14.30;99.90
20504;DHT22;10410;51.046;6.980;2023-10-09T02:05:22;14.30;99.90
20504;DHT22;10410;51.046;6.980;2023-10-09T02:12:23;14.30;99.90
20504;DHT22;10410;51.046;6.980;2023-10-09T02:19:24;14.30;99.90
20504;DHT22;10410;51.046;6.980;2023-10-09T02:26:34;14.40;99.90
20504;DHT22;10410;51.046;6.980;2023-10-09T02:34:07;14.40;99.90
20504;DHT22;10410;51.046;6.980;2023-10-09T02:41:12;14.30;99.90
20504;DHT22;10410;51.046;6.980;2023-10-09T02:48:12;14.30;99.90
20504;DHT22;10410;51.046;6.980;2023-10-09T02:55:14;14.30;99.90
20504;DHT22;10410;51.046;6.980;2023-10-09T03:02:23;14.40;99.90
20504;DHT22;10410;51.046;6.980;2023-10-09T03:09:25;14.40;99.90
20504;DHT22;10410;51.046;6.980;2023-10-09T03:16:29;14.30;99.90
20504;DHT22;10410;51.046;6.980;2023-10-09T03:23:29;14.30;99.90
20504;DHT22;10410;51.046;6.980;2023-10-09T03:30:30;14.30;99.90
20504;DHT22;10410;51.046;6.980;2023-10-09T03:37:32;14.20;99.90
20504;DHT22;10410;51.046;6.980;2023-10-09T03:44:35;14.20;99.90
20504;DHT22;10410;51.046;6.980;2023-10-09T03:51:41;14.20;99.90
20504;DHT22;10410;51.046;6.980;2023-10-09T03:58:44;14.20;99.90
20504;DHT22;10410;51.046;6.980;2023-10-09T04:05:45;14.20;99.90
20504;DHT22;10410;51.046;6.980;2023-10-09T04:12:45;14.30;99.90
20504;DHT22;10410;51.046;6.980;2023-10-09T04:19:50;14.30;99.90
20504;DHT22;10410;51.046;6.980;2023-10-09T04:27:10;14.30;99.90
20504;DHT22;10410;51.046;6.980;2023-10-09T04:34:13;14.30;99.90
20504;DHT22;10410;51.046;6.980;2023-10-09T04:41:22;14.30;99.90
20504;DHT22;10410;51.046;6.980;2023-10-09T04:48:32;14.30;99.90
20504;DHT22;10410;51.046;6.980;2023-10-09T04:55:33;14.30;99.90
20504;DHT22;10410;51.046;6.980;2023-10-09T05:02:38;14.40;99.90
20504;DHT22;10410;51.046;6.980;2023-10-09T05:09:39;14.40;99.90
20504;DHT22;10410;51.046;6.980;2023-10-09T05:16:56;14.40;99.90
20504;DHT22;10410;51.046;6.980;2023-10-09T05:24:02;14.40;99.90
20504;DHT22;10410;51.046;6.980;2023-10-09T05:31:13;14.40;99.90
20504;DHT22;10410;51.046;6.980;2023-10-09T05:38:33;14.40;99.90
20504;DHT22;10410;51.046;6.980;2023-10-09T05:45:36;14.40;99.90
20504;DHT22;10410;51.046;6.980;2023-10-09T05:52:56;14.40;99.90
20504;DHT22;10410;51.046;6.980;2023-10-09T06:00:06;14.40;99.90
20504;DHT22;10410;51.046;6.980;2023-10-09T06:07:25;14.40;99.90
20504;DHT22;10410;51.046;6.980;2023-10-09T06:14:41;14.40;99.90
20504;DHT22;10410;51.046;6.980;2023-10-09T06:21:42;14.40;99.90
20504;DHT22;10410;51.046;6.980;2023-10-09T06:28:42;14.50;99.90
20504;DHT22;10410;51.046;6.980;2023-10-09T06:35:49;14.60;99.90
20504;DHT22;10410;51.046;6.980;2023-10-09T06:42:55;14.60;99.90
20504;DHT22;10410;51.046;6.980;2023-10-09T06:49:56;14.60;99.90
20504;DHT22;10410;51.046;6.980;2023-10-09T06:57:16;14.70;99.90
20504;DHT22;10410;51.046;6.980;2023-10-09T07:04:37;14.80;99.90
20504;DHT22;10410;51.046;6.980;2023-10-09T07:11:50;14.90;99.90
20504;DHT22;10410;51.046;6.980;2023-10-09T07:18:50;15.10;99.90
20504;DHT22;10410;51.046;6.980;2023-10-09T07:26:04;15.20;99.90
20504;DHT22;10410;51.046;6.980;2023-10-09T07:33:18;15.30;99.90
20504;DHT22;10410;51.046;6.980;2023-10-09T07:40:19;15.40;99.90
20504;DHT22;10410;51.046;6.980;2023-10-09T07:47:19;15.60;99.90
20504;DHT22;10410;51.046;6.980;2023-10-09T07:54:33;15.80;99.90
20504;DHT22;10410;51.046;6.980;2023-10-09T08:01:34;16.10;99.90
20504;DHT22;10410;51.046;6.980;2023-10-09T08:08:35;16.20;99.90
20504;DHT22;10410;51.046;6.980;2023-10-09T08:15:39;16.40;99.90
20504;DHT22;10410;51.046;6.980;2023-10-09T08:23:02;16.60;99.90
20504;DHT22;10410;51.046;6.980;2023-10-09T08:30:06;16.80;99.90
20504;DHT22;10410;51.046;6.980;2023-10-09T08:37:19;17.00;99.90
20504;DHT22;10410;51.046;6.980;2023-10-09T08:44:26;17.10;99.90
20504;DHT22;10410;51.046;6.980;2023-10-09T08:51:34;17.20;99.90
20504;DHT22;10410;51.046;6.980;2023-10-09T08:58:35;17.40;99.90
20504;DHT22;10410;51.046;6.980;2023-10-09T09:05:38;17.60;99.90
20504;DHT22;10410;51.046;6.980;2023-10-09T09:12:39;17.70;99.90
20504;DHT22;10410;51.046;6.980;2023-10-09T09:19:40;17.90;99.90
20504;DHT22;10410;51.046;6.980;2023-10-09T09:26:43;18.00;99.90
20504;DHT22;10410;51.046;6.980;2023-10-09T09:33:47;18.20;99.90
20504;DHT22;10410;51.046;6.980;2023-10-09T09:40:58;18.40;99.90
20504;DHT22;10410;51.046;6.980;2023-10-09T09:48:04;18.60;99.90
20504;DHT22;10410;51.046;6.980;2023-10-09T09:55:11;18.70;99.90
20504;DHT22;10410;51.046;6.980;2023-10-09T10:02:35;19.00;99.90
20504;DHT22;10410;51.046;6.980;2023-10-09T10:09:38;19.30;99.90
20504;DHT22;10410;51.046;6.980;2023-10-09T10:17:02;19.60;99.90
20504;DHT22;10410;51.046;6.980;2023-10-09T10:31:59;19.80;99.90
20504;DHT22;10410;51.046;6.980;2023-10-09T10:39:09;20.00;99.90
20504;DHT22;10410;51.046;6.980;2023-10-09T10:46:12;20.20;99.90
20504;DHT22;10410;51.046;6.980;2023-10-09T10:53:25;20.30;99.90
20504;DHT22;10410;51.046;6.980;2023-10-09T11:00:35;20.40;99.90
20504;DHT22;10410;51.046;6.980;2023-10-09T11:07:57;20.50;99.90
20504;DHT22;10410;51.046;6.980;2023-10-09T11:14:58;20.50;99.90
20504;DHT22;10410;51.046;6.980;2023-10-09T11:22:09;20.70;99.90
20504;DHT22;10410;51.046;6.980;2023-10-09T11:29:28;20.70;99.90
20504;DHT22;10410;51.046;6.980;2023-10-09T11:36:44;20.70;99.90
20504;DHT22;10410;51.046;6.980;2023-10-09T11:43:53;20.80;99.90
20504;DHT22;10410;51.046;6.980;2023-10-09T11:50:55;20.80;99.90
20504;DHT22;10410;51.046;6.980;2023-10-09T11:58:04;20.70;99.90
20504;DHT22;10410;51.046;6.980;2023-10-09T12:05:05;20.70;99.90
20504;DHT22;10410;51.046;6.980;2023-10-09T12:12:08;20.70;99.90
20504;DHT22;10410;51.046;6.980;2023-10-09T12:19:11;20.70;99.90
20504;DHT22;10410;51.046;6.980;2023-10-09T12:26:11;20.70;99.90
20504;DHT22;10410;51.046;6.980;2023-10-09T12:33:15;20.50;99.90
20504;DHT22;10410;51.046;6.980;2023-10-09T12:40:15;20.60;99.90
20504;DHT22;10410;51.046;6.980;2023-10-09T12:47:24;20.70;99.90
20504;DHT22;10410;51.046;6.980;2023-10-09T12:54:25;20.70;99.90
20504;DHT22;10410;51.046;6.980;2023-10-09T13:01:28;20.70;99.90
20504;DHT22;10410;51.046;6.980;2023-10-09T13:08:44;20.70;99.90
20504;DHT22;10410;51.046;6.980;2023-10-09T13:15:45;20.70;99.90
20504;DHT22;10410;51.046;6.980;2023-10-09T13:22:46;20.70;99.90
20504;DHT22;10410;51.046;6.980;2023-10-09T13:29:48;20.80;99.90
20504;DHT22;10410;51.046;6.980;2023-10-09T13:36:48;20.80;99.90
20504;DHT22;10410;51.046;6.980;2023-10-09T13:43:56;20.80;99.90
20504;DHT22;10410;51.046;6.980;2023-10-09T13:51:00;20.80;99.90
20504;DHT22;10410;51.046;6.980;2023-10-09T13:58:07;20.70;99.90
20504;DHT22;10410;51.046;6.980;2023-10-09T14:05:14;20.80;99.90
20504;DHT22;10410;51.046;6.980;2023-10-09T14:12:14;21.00;99.90
20504;DHT22;10410;51.046;6.980;2023-10-09T14:19:15;21.20;99.90
20504;DHT22;10410;51.046;6.980;2023-10-09T14:26:21;21.10;99.90
20504;DHT22;10410;51.046;6.980;2023-10-09T14:33:22;21.10;99.90
20504;DHT22;10410;51.046;6.980;2023-10-09T14:40:27;21.20;99.90
20504;DHT22;10410;51.046;6.980;2023-10-09T14:47:31;21.40;99.90
20504;DHT22;10410;51.046;6.980;2023-10-09T14:54:32;21.30;99.90
20504;DHT22;10410;51.046;6.980;2023-10-09T15:01:32;21.20;99.90
20504;DHT22;10410;51.046;6.980;2023-10-09T15:08:33;21.20;99.90
20504;DHT22;10410;51.046;6.980;2023-10-09T15:15:40;21.20;99.90
20504;DHT22;10410;51.046;6.980;2023-10-09T15:22:44;21.30;99.90
20504;DHT22;10410;51.046;6.980;2023-10-09T15:29:46;21.40;99.90
20504;DHT22;10410;51.046;6.980;2023-10-09T15:36:46;21.40;99.90
20504;DHT22;10410;51.046;6.980;2023-10-09T15:43:47;21.30;99.90
20504;DHT22;10410;51.046;6.980;2023-10-09T15:50:47;21.30;99.90
20504;DHT22;10410;51.046;6.980;2023-10-09T15:57:48;21.20;99.90
20504;DHT22;10410;51.046;6.980;2023-10-09T16:04:54;21.10;99.90
20504;DHT22;10410;51.046;6.980;2023-10-09T16:11:55;20.90;99.90
20504;DHT22;10410;51.046;6.980;2023-10-09T16:18:56;20.80;99.90
20504;DHT22;10410;51.046;6.980;2023-10-09T16:30:59;20.40;99.90
20504;DHT22;10410;51.046;6.980;2023-10-09T16:38:00;20.20;99.90
20504;DHT22;10410;51.046;6.980;2023-10-09T16:45:06;20.00;99.90
20504;DHT22;10410;51.046;6.980;2023-10-09T16:52:09;19.80;99.90
20504;DHT22;10410;51.046;6.980;2023-10-09T16:59:12;19.70;99.90
20504;DHT22;10410;51.046;6.980;2023-10-09T17:06:15;19.60;99.90
20504;DHT22;10410;51.046;6.980;2023-10-09T17:13:18;19.50;99.90
20504;DHT22;10410;51.046;6.980;2023-10-09T17:20:24;19.30;99.90
20504;DHT22;10410;51.046;6.980;2023-10-09T17:27:27;19.20;99.90
20504;DHT22;10410;51.046;6.980;2023-10-09T17:34:28;19.10;99.90
20504;DHT22;10410;51.046;6.980;2023-10-09T17:41:32;19.10;99.90
20504;DHT22;10410;51.046;6.980;2023-10-09T17:48:35;19.00;99.90
20504;DHT22;10410;51.046;6.980;2023-10-09T17:55:36;18.90;99.90
20504;DHT22;10410;51.046;6.980;2023-10-09T18:02:36;18.80;99.90
20504;DHT22;10410;51.046;6.980;2023-10-09T18:09:36;18.80;99.90
20504;DHT22;10410;51.046;6.980;2023-10-09T18:16:42;18.70;99.90
20504;DHT22;10410;51.046;6.980;2023-10-09T18:23:43;18.60;99.90
20504;DHT22;10410;51.046;6.980;2023-10-09T18:30:48;18.50;99.90
20504;DHT22;10410;51.046;6.980;2023-10-09T18:37:51;18.40;99.90
20504;DHT22;10410;51.046;6.980;2023-10-09T18:44:57;18.30;99.90
20504;DHT22;10410;51.046;6.980;2023-10-09T18:51:58;18.20;99.90
20504;DHT22;10410;51.046;6.980;2023-10-09T18:59:00;18.10;99.90
20504;DHT22;10410;51.046;6.980;2023-10-09T19:06:08;18.00;99.90
20504;DHT22;10410;51.046;6.980;2023-10-09T19:13:10;18.00;99.90
20504;DHT22;10410;51.046;6.980;2023-10-09T19:20:11;17.90;99.90
20504;DHT22;10410;51.046;6.980;2023-10-09T19:27:11;17.90;99.90
20504;DHT22;10410;51.046;6.980;2023-10-09T19:34:12;17.80;99.90
20504;DHT22;10410;51.046;6.980;2023-10-09T19:41:14;17.80;99.90
20504;DHT22;10410;51.046;6.980;2023-10-09T19:48:16;17.80;99.90
20504;DHT22;10410;51.046;6.980;2023-10-09T19:55:17;17.90;99.90
20504;DHT22;10410;51.046;6.980;2023-10-09T20:02:22;17.70;99.90
20504;DHT22;10410;51.046;6.980;2023-10-09T20:09:23;17.70;99.90
20504;DHT22;10410;51.046;6.980;2023-10-09T20:16:25;17.60;99.90
20504;DHT22;10410;51.046;6.980;2023-10-09T20:23:27;17.50;99.90
20504;DHT22;10410;51.046;6.980;2023-10-09T20:30:27;17.40;99.90
20504;DHT22;10410;51.046;6.980;2023-10-09T20:37:28;17.30;99.90
20504;DHT22;10410;51.046;6.980;2023-10-09T20:44:29;17.20;99.90
20504;DHT22;10410;51.046;6.980;2023-10-09T20:51:30;17.10;99.90
20504;DHT22;10410;51.046;6.980;2023-10-09T20:58:41;17.00;99.90
20504;DHT22;10410;51.046;6.980;2023-10-09T21:05:42;16.90;99.90
20504;DHT22;10410;51.046;6.980;2023-10-09T21:12:45;16.90;99.90
20504;DHT22;10410;51.046;6.980;2023-10-09T21:19:49;16.80;99.90
20504;DHT22;10410;51.046;6.980;2023-10-09T21:26:49;16.80;99.90
20504;DHT22;10410;51.046;6.980;2023-10-09T21:33:50;16.70;99.90
20504;DHT22;10410;51.046;6.980;2023-10-09T21:40:51;16.60;99.90
20504;DHT22;10410;51.046;6.980;2023-10-09T21:47:52;16.50;99.90
20504;DHT22;10410;51.046;6.980;2023-10-09T21:54:56;16.50;99.90
20504;DHT22;10410;51.046;6.980;2023-10-09T22:01:57;16.40;99.90
20504;DHT22;10410;51.046;6.980;2023-10-09T22:08:57;16.30;99.90
20504;DHT22;10410;51.046;6.980;2023-10-09T22:15:58;16.20;99.90
20504;DHT22;10410;51.046;6.980;2023-10-09T22:22:58;16.10;99.90
20504;DHT22;10410;51.046;6.980;2023-10-09T22:29:59;16.00;99.90
20504;DHT22;10410;51.046;6.980;2023-10-09T22:37:05;15.90;99.90
20504;DHT22;10410;51.046;6.980;2023-10-09T22:44:13;15.80;99.90
20504;DHT22;10410;51.046;6.980;2023-10-09T22:51:14;15.70;99.90
20504;DHT22;10410;51.046;6.980;2023-10-09T22:58:23;15.50;99.90
20504;DHT22;10410;51.046;6.980;2023-10-09T23:05:27;15.40;99.90
20504;DHT22;10410;51.046;6.980;2023-10-09T23:12:31;15.30;99.90
20504;DHT22;10410;51.046;6.980;2023-10-09T23:19:36;15.30;99.90
20504;DHT22;10410;51.046;6.980;2023-10-09T23:26:39;15.10;99.90
20504;DHT22;10410;51.046;6.980;2023-10-09T23:33:54;15.00;99.90
20504;DHT22;10410;51.046;6.980;2023-10-09T23:40:59;15.00;99.90
20504;DHT22;10410;51.046;6.980;2023-10-09T23:48:11;14.90;99.90
20504;DHT22;10410;51.046;6.980;2023-10-09T23:55:15;14.90;99.90
